sensor_id;sensor_type;location;lat;lon;timestamp;P1;durP1;ratioP1;P2;durP2;ratioP2
5085;SDS011;4715;51.660;7.082;2023-01-09T00:01:26;1.23;;;1.13;;
5085;SDS011;4715;51.660;7.082;2023-01-09T00:03:50;2.83;;;1.30;;
5085;SDS011;4715;51.660;7.082;2023-01-09T00:06:12;1.07;;;1.07;;
5085;SDS011;4715;51.660;7.082;2023-01-09T00:08:33;1.50;;;1.40;;
5085;SDS011;4715;51.660;7.082;2023-01-09T00:10:57;1.80;;;1.50;;
5085;SDS011;4715;51.660;7.082;2023-01-09T00:13:19;1.10;;;1.03;;
5085;SDS011;4715;51.660;7.082;2023-01-09T00:15:40;1.50;;;1.40;;
5085;SDS011;4715;51.660;7.082;2023-01-09T00:18:02;1.77;;;1.53;;
5085;SDS011;4715;51.660;7.082;2023-01-09T00:20:24;1.63;;;1.53;;
5085;SDS011;4715;51.660;7.082;2023-01-09T00:22:46;2.23;;;1.60;;
5085;SDS011;4715;51.660;7.082;2023-01-09T00:25:08;2.20;;;1.73;;
5085;SDS011;4715;51.660;7.082;2023-01-09T00:27:32;1.30;;;1.20;;
5085;SDS011;4715;51.660;7.082;2023-01-09T00:29:54;2.73;;;1.73;;
5085;SDS011;4715;51.660;7.082;2023-01-09T00:32:16;1.60;;;1.47;;
5085;SDS011;4715;51.660;7.082;2023-01-09T00:34:39;1.40;;;1.30;;
5085;SDS011;4715;51.660;7.082;2023-01-09T00:37:02;1.40;;;1.30;;
5085;SDS011;4715;51.660;7.082;2023-01-09T00:39:30;1.70;;;1.60;;
5085;SDS011;4715;51.660;7.082;2023-01-09T00:41:53;1.07;;;1.00;;
5085;SDS011;4715;51.660;7.082;2023-01-09T00:44:20;1.30;;;1.20;;
5085;SDS011;4715;51.660;7.082;2023-01-09T00:46:46;4.27;;;1.23;;
5085;SDS011;4715;51.660;7.082;2023-01-09T00:49:11;1.30;;;1.20;;
5085;SDS011;4715;51.660;7.082;2023-01-09T00:51:34;1.57;;;1.47;;
5085;SDS011;4715;51.660;7.082;2023-01-09T00:53:58;1.00;;;1.00;;
5085;SDS011;4715;51.660;7.082;2023-01-09T00:56:22;1.50;;;1.30;;
5085;SDS011;4715;51.660;7.082;2023-01-09T00:58:44;1.43;;;1.27;;
5085;SDS011;4715;51.660;7.082;2023-01-09T01:01:08;1.03;;;0.93;;
5085;SDS011;4715;51.660;7.082;2023-01-09T01:03:32;1.30;;;1.20;;
5085;SDS011;4715;51.660;7.082;2023-01-09T01:05:54;1.73;;;1.63;;
5085;SDS011;4715;51.660;7.082;2023-01-09T01:08:33;4.63;;;1.60;;
5085;SDS011;4715;51.660;7.082;2023-01-09T01:11:02;1.70;;;1.60;;
5085;SDS011;4715;51.660;7.082;2023-01-09T01:13:24;1.50;;;1.40;;
5085;SDS011;4715;51.660;7.082;2023-01-09T01:15:46;2.60;;;1.47;;
5085;SDS011;4715;51.660;7.082;2023-01-09T01:18:09;1.87;;;1.50;;
5085;SDS011;4715;51.660;7.082;2023-01-09T01:20:32;2.33;;;1.73;;
5085;SDS011;4715;51.660;7.082;2023-01-09T01:22:54;2.00;;;1.90;;
5085;SDS011;4715;51.660;7.082;2023-01-09T01:25:16;1.83;;;1.73;;
5085;SDS011;4715;51.660;7.082;2023-01-09T01:27:38;1.70;;;1.60;;
5085;SDS011;4715;51.660;7.082;2023-01-09T01:30:00;1.80;;;1.60;;
5085;SDS011;4715;51.660;7.082;2023-01-09T01:32:22;1.43;;;1.30;;
5085;SDS011;4715;51.660;7.082;2023-01-09T01:34:46;5.80;;;1.80;;
5085;SDS011;4715;51.660;7.082;2023-01-09T01:37:08;1.73;;;1.63;;
5085;SDS011;4715;51.660;7.082;2023-01-09T01:39:29;2.70;;;2.17;;
5085;SDS011;4715;51.660;7.082;2023-01-09T01:41:51;2.00;;;1.90;;
5085;SDS011;4715;51.660;7.082;2023-01-09T01:47:12;1.77;;;1.67;;
5085;SDS011;4715;51.660;7.082;2023-01-09T01:49:35;2.10;;;1.93;;
5085;SDS011;4715;51.660;7.082;2023-01-09T01:51:59;1.83;;;1.73;;
5085;SDS011;4715;51.660;7.082;2023-01-09T01:54:22;1.30;;;1.20;;
5085;SDS011;4715;51.660;7.082;2023-01-09T01:56:47;1.70;;;1.60;;
5085;SDS011;4715;51.660;7.082;2023-01-09T01:59:12;1.53;;;1.43;;
5085;SDS011;4715;51.660;7.082;2023-01-09T02:01:41;2.10;;;1.60;;
5085;SDS011;4715;51.660;7.082;2023-01-09T02:04:05;1.60;;;1.50;;
5085;SDS011;4715;51.660;7.082;2023-01-09T02:06:28;3.80;;;1.40;;
5085;SDS011;4715;51.660;7.082;2023-01-09T02:08:55;2.00;;;1.40;;
5085;SDS011;4715;51.660;7.082;2023-01-09T02:11:18;1.90;;;1.50;;
5085;SDS011;4715;51.660;7.082;2023-01-09T02:13:40;2.00;;;1.60;;
5085;SDS011;4715;51.660;7.082;2023-01-09T02:16:09;1.53;;;1.20;;
5085;SDS011;4715;51.660;7.082;2023-01-09T02:18:45;1.60;;;1.23;;
5085;SDS011;4715;51.660;7.082;2023-01-09T02:21:12;1.30;;;1.20;;
5085;SDS011;4715;51.660;7.082;2023-01-09T02:26:39;1.60;;;1.03;;
5085;SDS011;4715;51.660;7.082;2023-01-09T02:29:31;1.30;;;1.20;;
5085;SDS011;4715;51.660;7.082;2023-01-09T02:32:08;1.30;;;1.20;;
5085;SDS011;4715;51.660;7.082;2023-01-09T02:34:41;3.63;;;1.50;;
5085;SDS011;4715;51.660;7.082;2023-01-09T02:37:16;2.27;;;1.57;;
5085;SDS011;4715;51.660;7.082;2023-01-09T02:39:46;1.73;;;1.60;;
5085;SDS011;4715;51.660;7.082;2023-01-09T02:42:12;5.73;;;2.20;;
5085;SDS011;4715;51.660;7.082;2023-01-09T02:44:37;4.60;;;2.27;;
5085;SDS011;4715;51.660;7.082;2023-01-09T02:47:03;3.70;;;2.13;;
5085;SDS011;4715;51.660;7.082;2023-01-09T02:49:28;1.80;;;1.70;;
5085;SDS011;4715;51.660;7.082;2023-01-09T02:51:50;2.87;;;2.63;;
5085;SDS011;4715;51.660;7.082;2023-01-09T02:54:18;3.30;;;3.00;;
5085;SDS011;4715;51.660;7.082;2023-01-09T02:57:02;6.53;;;2.17;;
5085;SDS011;4715;51.660;7.082;2023-01-09T02:59:35;2.70;;;2.50;;
5085;SDS011;4715;51.660;7.082;2023-01-09T03:02:10;2.63;;;2.43;;
5085;SDS011;4715;51.660;7.082;2023-01-09T03:04:45;3.00;;;2.80;;
5085;SDS011;4715;51.660;7.082;2023-01-09T03:07:17;3.07;;;2.87;;
5085;SDS011;4715;51.660;7.082;2023-01-09T03:09:45;3.37;;;2.90;;
5085;SDS011;4715;51.660;7.082;2023-01-09T03:12:10;3.77;;;2.70;;
5085;SDS011;4715;51.660;7.082;2023-01-09T03:14:37;3.70;;;3.10;;
5085;SDS011;4715;51.660;7.082;2023-01-09T03:17:05;2.93;;;2.40;;
5085;SDS011;4715;51.660;7.082;2023-01-09T03:19:30;3.10;;;2.67;;
5085;SDS011;4715;51.660;7.082;2023-01-09T03:21:55;2.90;;;2.70;;
5085;SDS011;4715;51.660;7.082;2023-01-09T03:24:17;4.33;;;2.60;;
5085;SDS011;4715;51.660;7.082;2023-01-09T03:26:39;2.03;;;1.93;;
5085;SDS011;4715;51.660;7.082;2023-01-09T03:29:01;5.20;;;1.90;;
5085;SDS011;4715;51.660;7.082;2023-01-09T03:31:23;2.30;;;2.10;;
5085;SDS011;4715;51.660;7.082;2023-01-09T03:33:45;5.93;;;2.73;;
5085;SDS011;4715;51.660;7.082;2023-01-09T03:36:07;3.20;;;2.90;;
5085;SDS011;4715;51.660;7.082;2023-01-09T03:38:31;2.30;;;2.13;;
5085;SDS011;4715;51.660;7.082;2023-01-09T03:40:53;3.63;;;3.17;;
5085;SDS011;4715;51.660;7.082;2023-01-09T03:43:15;2.77;;;2.60;;
5085;SDS011;4715;51.660;7.082;2023-01-09T03:45:37;3.97;;;3.57;;
5085;SDS011;4715;51.660;7.082;2023-01-09T03:47:59;4.77;;;2.90;;
5085;SDS011;4715;51.660;7.082;2023-01-09T03:50:21;3.83;;;3.50;;
5085;SDS011;4715;51.660;7.082;2023-01-09T03:52:43;3.50;;;3.20;;
5085;SDS011;4715;51.660;7.082;2023-01-09T03:55:06;2.97;;;2.77;;
5085;SDS011;4715;51.660;7.082;2023-01-09T03:57:29;3.40;;;3.20;;
5085;SDS011;4715;51.660;7.082;2023-01-09T03:59:50;6.50;;;3.77;;
5085;SDS011;4715;51.660;7.082;2023-01-09T04:02:12;6.40;;;3.40;;
5085;SDS011;4715;51.660;7.082;2023-01-09T04:04:34;4.33;;;3.93;;
5085;SDS011;4715;51.660;7.082;2023-01-09T04:06:56;4.17;;;3.80;;
5085;SDS011;4715;51.660;7.082;2023-01-09T04:09:18;4.03;;;3.63;;
5085;SDS011;4715;51.660;7.082;2023-01-09T04:11:41;5.97;;;4.17;;
5085;SDS011;4715;51.660;7.082;2023-01-09T04:14:02;3.93;;;3.67;;
5085;SDS011;4715;51.660;7.082;2023-01-09T04:16:24;3.40;;;3.10;;
5085;SDS011;4715;51.660;7.082;2023-01-09T04:18:46;3.03;;;2.83;;
5085;SDS011;4715;51.660;7.082;2023-01-09T04:21:08;2.93;;;2.60;;
5085;SDS011;4715;51.660;7.082;2023-01-09T04:23:29;2.27;;;1.90;;
5085;SDS011;4715;51.660;7.082;2023-01-09T04:25:51;5.67;;;2.30;;
5085;SDS011;4715;51.660;7.082;2023-01-09T04:28:14;7.37;;;2.63;;
5085;SDS011;4715;51.660;7.082;2023-01-09T04:30:36;2.07;;;1.97;;
5085;SDS011;4715;51.660;7.082;2023-01-09T04:33:00;2.70;;;1.97;;
5085;SDS011;4715;51.660;7.082;2023-01-09T04:35:22;6.60;;;2.73;;
5085;SDS011;4715;51.660;7.082;2023-01-09T04:37:44;2.90;;;2.60;;
5085;SDS011;4715;51.660;7.082;2023-01-09T04:40:06;2.90;;;2.10;;
5085;SDS011;4715;51.660;7.082;2023-01-09T04:42:31;2.23;;;2.13;;
5085;SDS011;4715;51.660;7.082;2023-01-09T04:44:54;4.63;;;2.60;;
5085;SDS011;4715;51.660;7.082;2023-01-09T04:47:16;5.33;;;2.87;;
5085;SDS011;4715;51.660;7.082;2023-01-09T04:49:38;4.50;;;2.67;;
5085;SDS011;4715;51.660;7.082;2023-01-09T04:52:00;4.80;;;2.73;;
5085;SDS011;4715;51.660;7.082;2023-01-09T04:54:21;3.60;;;3.10;;
5085;SDS011;4715;51.660;7.082;2023-01-09T04:56:43;3.30;;;2.30;;
5085;SDS011;4715;51.660;7.082;2023-01-09T04:59:05;3.33;;;2.23;;
5085;SDS011;4715;51.660;7.082;2023-01-09T05:01:29;5.33;;;2.70;;
5085;SDS011;4715;51.660;7.082;2023-01-09T05:03:51;6.63;;;2.57;;
5085;SDS011;4715;51.660;7.082;2023-01-09T05:06:13;5.43;;;2.77;;
5085;SDS011;4715;51.660;7.082;2023-01-09T05:08:35;4.73;;;2.50;;
5085;SDS011;4715;51.660;7.082;2023-01-09T05:10:56;3.77;;;2.90;;
5085;SDS011;4715;51.660;7.082;2023-01-09T05:13:19;2.77;;;2.57;;
5085;SDS011;4715;51.660;7.082;2023-01-09T05:15:41;7.73;;;3.10;;
5085;SDS011;4715;51.660;7.082;2023-01-09T05:18:04;4.13;;;3.00;;
5085;SDS011;4715;51.660;7.082;2023-01-09T05:20:26;2.40;;;2.17;;
5085;SDS011;4715;51.660;7.082;2023-01-09T05:22:47;6.40;;;2.50;;
5085;SDS011;4715;51.660;7.082;2023-01-09T05:25:09;3.20;;;2.97;;
5085;SDS011;4715;51.660;7.082;2023-01-09T05:27:31;10.00;;;3.80;;
5085;SDS011;4715;51.660;7.082;2023-01-09T05:29:53;9.90;;;1.87;;
5085;SDS011;4715;51.660;7.082;2023-01-09T05:32:15;4.03;;;1.70;;
5085;SDS011;4715;51.660;7.082;2023-01-09T05:34:40;2.80;;;1.50;;
5085;SDS011;4715;51.660;7.082;2023-01-09T05:37:02;2.60;;;1.63;;
5085;SDS011;4715;51.660;7.082;2023-01-09T05:39:24;2.00;;;1.47;;
5085;SDS011;4715;51.660;7.082;2023-01-09T05:41:46;8.70;;;2.10;;
5085;SDS011;4715;51.660;7.082;2023-01-09T05:44:08;3.40;;;1.90;;
5085;SDS011;4715;51.660;7.082;2023-01-09T05:46:30;4.03;;;1.90;;
5085;SDS011;4715;51.660;7.082;2023-01-09T05:48:52;1.80;;;1.70;;
5085;SDS011;4715;51.660;7.082;2023-01-09T05:51:15;2.10;;;1.47;;
5085;SDS011;4715;51.660;7.082;2023-01-09T05:53:37;2.03;;;1.67;;
5085;SDS011;4715;51.660;7.082;2023-01-09T05:55:58;6.40;;;1.73;;
5085;SDS011;4715;51.660;7.082;2023-01-09T05:58:20;5.87;;;1.93;;
5085;SDS011;4715;51.660;7.082;2023-01-09T06:00:42;1.60;;;1.50;;
5085;SDS011;4715;51.660;7.082;2023-01-09T06:03:04;2.23;;;1.63;;
5085;SDS011;4715;51.660;7.082;2023-01-09T06:05:26;1.60;;;1.50;;
5085;SDS011;4715;51.660;7.082;2023-01-09T06:07:49;1.90;;;1.40;;
5085;SDS011;4715;51.660;7.082;2023-01-09T06:10:11;3.10;;;1.50;;
5085;SDS011;4715;51.660;7.082;2023-01-09T06:12:34;2.10;;;1.57;;
5085;SDS011;4715;51.660;7.082;2023-01-09T06:14:56;1.90;;;1.47;;
5085;SDS011;4715;51.660;7.082;2023-01-09T06:17:18;2.73;;;1.47;;
5085;SDS011;4715;51.660;7.082;2023-01-09T06:19:39;1.70;;;1.60;;
5085;SDS011;4715;51.660;7.082;2023-01-09T06:22:01;2.23;;;1.60;;
5085;SDS011;4715;51.660;7.082;2023-01-09T06:24:24;2.27;;;1.90;;
5085;SDS011;4715;51.660;7.082;2023-01-09T06:26:47;2.97;;;1.40;;
5085;SDS011;4715;51.660;7.082;2023-01-09T06:29:08;3.97;;;1.83;;
5085;SDS011;4715;51.660;7.082;2023-01-09T06:31:30;2.43;;;1.33;;
5085;SDS011;4715;51.660;7.082;2023-01-09T06:33:52;4.23;;;1.80;;
5085;SDS011;4715;51.660;7.082;2023-01-09T06:36:15;5.03;;;1.70;;
5085;SDS011;4715;51.660;7.082;2023-01-09T06:38:36;5.87;;;2.00;;
5085;SDS011;4715;51.660;7.082;2023-01-09T06:41:00;2.90;;;1.70;;
5085;SDS011;4715;51.660;7.082;2023-01-09T06:43:21;3.67;;;2.13;;
5085;SDS011;4715;51.660;7.082;2023-01-09T06:45:43;5.80;;;1.73;;
5085;SDS011;4715;51.660;7.082;2023-01-09T06:48:05;3.23;;;1.47;;
5085;SDS011;4715;51.660;7.082;2023-01-09T06:50:27;6.33;;;1.93;;
5085;SDS011;4715;51.660;7.082;2023-01-09T06:52:49;2.53;;;1.43;;
5085;SDS011;4715;51.660;7.082;2023-01-09T06:55:11;2.60;;;1.70;;
5085;SDS011;4715;51.660;7.082;2023-01-09T06:57:35;2.10;;;1.53;;
5085;SDS011;4715;51.660;7.082;2023-01-09T06:59:56;3.70;;;1.40;;
5085;SDS011;4715;51.660;7.082;2023-01-09T07:02:19;2.47;;;1.53;;
5085;SDS011;4715;51.660;7.082;2023-01-09T07:04:43;2.33;;;1.60;;
5085;SDS011;4715;51.660;7.082;2023-01-09T07:07:05;5.07;;;2.13;;
5085;SDS011;4715;51.660;7.082;2023-01-09T07:09:27;5.87;;;1.67;;
5085;SDS011;4715;51.660;7.082;2023-01-09T07:11:49;4.80;;;2.30;;
5085;SDS011;4715;51.660;7.082;2023-01-09T07:14:12;4.63;;;1.50;;
5085;SDS011;4715;51.660;7.082;2023-01-09T07:16:34;4.57;;;2.87;;
5085;SDS011;4715;51.660;7.082;2023-01-09T07:18:55;4.73;;;1.80;;
5085;SDS011;4715;51.660;7.082;2023-01-09T07:21:17;2.87;;;1.80;;
5085;SDS011;4715;51.660;7.082;2023-01-09T07:23:39;2.70;;;1.80;;
5085;SDS011;4715;51.660;7.082;2023-01-09T07:26:01;3.67;;;1.63;;
5085;SDS011;4715;51.660;7.082;2023-01-09T07:28:24;3.33;;;1.97;;
5085;SDS011;4715;51.660;7.082;2023-01-09T07:30:47;6.80;;;1.80;;
5085;SDS011;4715;51.660;7.082;2023-01-09T07:33:09;4.40;;;1.23;;
5085;SDS011;4715;51.660;7.082;2023-01-09T07:35:30;2.33;;;1.30;;
5085;SDS011;4715;51.660;7.082;2023-01-09T07:37:53;4.57;;;1.63;;
5085;SDS011;4715;51.660;7.082;2023-01-09T07:40:15;1.77;;;1.40;;
5085;SDS011;4715;51.660;7.082;2023-01-09T07:42:36;4.00;;;1.90;;
5085;SDS011;4715;51.660;7.082;2023-01-09T07:44:58;2.47;;;1.60;;
5085;SDS011;4715;51.660;7.082;2023-01-09T07:47:22;2.00;;;1.23;;
5085;SDS011;4715;51.660;7.082;2023-01-09T07:49:43;7.93;;;1.57;;
5085;SDS011;4715;51.660;7.082;2023-01-09T07:52:05;3.63;;;1.47;;
5085;SDS011;4715;51.660;7.082;2023-01-09T07:54:27;6.30;;;1.77;;
5085;SDS011;4715;51.660;7.082;2023-01-09T07:56:49;8.00;;;1.67;;
5085;SDS011;4715;51.660;7.082;2023-01-09T07:59:11;4.90;;;1.40;;
5085;SDS011;4715;51.660;7.082;2023-01-09T08:01:33;5.03;;;1.50;;
5085;SDS011;4715;51.660;7.082;2023-01-09T08:03:56;5.40;;;1.30;;
5085;SDS011;4715;51.660;7.082;2023-01-09T08:06:18;4.90;;;1.40;;
5085;SDS011;4715;51.660;7.082;2023-01-09T08:08:40;5.50;;;1.30;;
5085;SDS011;4715;51.660;7.082;2023-01-09T08:11:02;2.63;;;1.33;;
5085;SDS011;4715;51.660;7.082;2023-01-09T08:13:24;2.70;;;1.60;;
5085;SDS011;4715;51.660;7.082;2023-01-09T08:15:46;3.47;;;1.60;;
5085;SDS011;4715;51.660;7.082;2023-01-09T08:18:08;5.97;;;2.10;;
5085;SDS011;4715;51.660;7.082;2023-01-09T08:20:31;1.93;;;1.20;;
5085;SDS011;4715;51.660;7.082;2023-01-09T08:22:53;3.10;;;1.53;;
5085;SDS011;4715;51.660;7.082;2023-01-09T08:25:15;2.47;;;1.60;;
5085;SDS011;4715;51.660;7.082;2023-01-09T08:27:38;5.77;;;1.10;;
5085;SDS011;4715;51.660;7.082;2023-01-09T08:30:00;1.70;;;1.60;;
5085;SDS011;4715;51.660;7.082;2023-01-09T08:32:22;1.93;;;1.60;;
5085;SDS011;4715;51.660;7.082;2023-01-09T08:34:44;2.63;;;1.30;;
5085;SDS011;4715;51.660;7.082;2023-01-09T08:37:09;4.97;;;2.03;;
5085;SDS011;4715;51.660;7.082;2023-01-09T08:39:31;4.40;;;1.33;;
5085;SDS011;4715;51.660;7.082;2023-01-09T08:41:52;5.87;;;1.80;;
5085;SDS011;4715;51.660;7.082;2023-01-09T08:44:32;7.73;;;1.70;;
5085;SDS011;4715;51.660;7.082;2023-01-09T08:47:12;3.37;;;2.17;;
5085;SDS011;4715;51.660;7.082;2023-01-09T08:49:36;1.40;;;1.30;;
5085;SDS011;4715;51.660;7.082;2023-01-09T08:51:58;6.83;;;1.77;;
5085;SDS011;4715;51.660;7.082;2023-01-09T08:54:22;5.80;;;1.63;;
5085;SDS011;4715;51.660;7.082;2023-01-09T08:56:44;2.00;;;1.40;;
5085;SDS011;4715;51.660;7.082;2023-01-09T08:59:09;2.70;;;1.77;;
5085;SDS011;4715;51.660;7.082;2023-01-09T09:01:31;5.20;;;2.17;;
5085;SDS011;4715;51.660;7.082;2023-01-09T09:03:53;5.00;;;2.17;;
5085;SDS011;4715;51.660;7.082;2023-01-09T09:06:14;2.20;;;1.87;;
5085;SDS011;4715;51.660;7.082;2023-01-09T09:08:37;5.83;;;1.60;;
5085;SDS011;4715;51.660;7.082;2023-01-09T09:11:00;3.73;;;2.33;;
5085;SDS011;4715;51.660;7.082;2023-01-09T09:13:22;6.73;;;2.00;;
5085;SDS011;4715;51.660;7.082;2023-01-09T09:15:44;5.30;;;2.10;;
5085;SDS011;4715;51.660;7.082;2023-01-09T09:18:05;3.83;;;1.77;;
5085;SDS011;4715;51.660;7.082;2023-01-09T09:20:29;1.93;;;1.70;;
5085;SDS011;4715;51.660;7.082;2023-01-09T09:22:52;7.80;;;2.73;;
5085;SDS011;4715;51.660;7.082;2023-01-09T09:25:14;4.80;;;2.60;;
5085;SDS011;4715;51.660;7.082;2023-01-09T09:27:38;9.07;;;2.40;;
5085;SDS011;4715;51.660;7.082;2023-01-09T09:30:01;4.00;;;1.90;;
5085;SDS011;4715;51.660;7.082;2023-01-09T09:32:23;8.87;;;2.50;;
5085;SDS011;4715;51.660;7.082;2023-01-09T09:34:44;5.80;;;3.07;;
5085;SDS011;4715;51.660;7.082;2023-01-09T09:37:06;7.77;;;3.27;;
5085;SDS011;4715;51.660;7.082;2023-01-09T09:39:28;7.30;;;2.23;;
5085;SDS011;4715;51.660;7.082;2023-01-09T09:41:59;7.13;;;2.30;;
5085;SDS011;4715;51.660;7.082;2023-01-09T09:45:04;6.83;;;2.00;;
5085;SDS011;4715;51.660;7.082;2023-01-09T09:47:45;4.03;;;2.77;;
5085;SDS011;4715;51.660;7.082;2023-01-09T09:50:19;5.13;;;2.83;;
5085;SDS011;4715;51.660;7.082;2023-01-09T09:52:50;7.73;;;2.40;;
5085;SDS011;4715;51.660;7.082;2023-01-09T09:55:17;4.30;;;2.93;;
5085;SDS011;4715;51.660;7.082;2023-01-09T09:57:44;2.57;;;2.27;;
5085;SDS011;4715;51.660;7.082;2023-01-09T10:00:13;3.83;;;2.33;;
5085;SDS011;4715;51.660;7.082;2023-01-09T10:02:40;3.70;;;2.37;;
5085;SDS011;4715;51.660;7.082;2023-01-09T10:05:08;5.73;;;2.70;;
5085;SDS011;4715;51.660;7.082;2023-01-09T10:07:36;5.97;;;2.80;;
5085;SDS011;4715;51.660;7.082;2023-01-09T10:10:04;4.83;;;2.20;;
5085;SDS011;4715;51.660;7.082;2023-01-09T10:12:30;5.73;;;2.80;;
5085;SDS011;4715;51.660;7.082;2023-01-09T10:14:55;4.87;;;2.60;;
5085;SDS011;4715;51.660;7.082;2023-01-09T10:17:41;6.10;;;2.83;;
5085;SDS011;4715;51.660;7.082;2023-01-09T10:23:08;10.37;;;2.00;;
5085;SDS011;4715;51.660;7.082;2023-01-09T10:25:43;4.20;;;2.60;;
5085;SDS011;4715;51.660;7.082;2023-01-09T10:28:16;6.77;;;2.57;;
5085;SDS011;4715;51.660;7.082;2023-01-09T10:30:49;3.20;;;2.07;;
5085;SDS011;4715;51.660;7.082;2023-01-09T10:33:19;4.87;;;1.70;;
5085;SDS011;4715;51.660;7.082;2023-01-09T10:36:05;3.10;;;1.93;;
5085;SDS011;4715;51.660;7.082;2023-01-09T10:38:42;5.60;;;2.10;;
5085;SDS011;4715;51.660;7.082;2023-01-09T10:41:09;5.30;;;2.50;;
5085;SDS011;4715;51.660;7.082;2023-01-09T10:43:35;2.60;;;2.10;;
5085;SDS011;4715;51.660;7.082;2023-01-09T10:46:02;4.90;;;1.90;;
5085;SDS011;4715;51.660;7.082;2023-01-09T10:48:32;5.87;;;1.70;;
5085;SDS011;4715;51.660;7.082;2023-01-09T10:50:55;4.07;;;1.60;;
5085;SDS011;4715;51.660;7.082;2023-01-09T10:53:19;2.57;;;2.03;;
5085;SDS011;4715;51.660;7.082;2023-01-09T10:55:43;1.70;;;1.60;;
5085;SDS011;4715;51.660;7.082;2023-01-09T10:58:09;5.93;;;2.97;;
5085;SDS011;4715;51.660;7.082;2023-01-09T11:00:32;5.60;;;2.20;;
5085;SDS011;4715;51.660;7.082;2023-01-09T11:02:54;10.60;;;2.10;;
5085;SDS011;4715;51.660;7.082;2023-01-09T11:05:19;1.80;;;1.70;;
5085;SDS011;4715;51.660;7.082;2023-01-09T11:07:44;8.70;;;2.00;;
5085;SDS011;4715;51.660;7.082;2023-01-09T11:10:10;4.77;;;1.90;;
5085;SDS011;4715;51.660;7.082;2023-01-09T11:12:33;7.00;;;2.23;;
5085;SDS011;4715;51.660;7.082;2023-01-09T11:14:56;4.47;;;2.23;;
5085;SDS011;4715;51.660;7.082;2023-01-09T11:17:48;7.30;;;2.40;;
5085;SDS011;4715;51.660;7.082;2023-01-09T11:20:14;5.83;;;3.00;;
5085;SDS011;4715;51.660;7.082;2023-01-09T11:22:42;4.60;;;2.40;;
5085;SDS011;4715;51.660;7.082;2023-01-09T11:25:10;5.60;;;2.23;;
5085;SDS011;4715;51.660;7.082;2023-01-09T11:27:33;6.70;;;2.47;;
5085;SDS011;4715;51.660;7.082;2023-01-09T11:30:14;2.73;;;2.10;;
5085;SDS011;4715;51.660;7.082;2023-01-09T11:32:43;4.10;;;2.40;;
5085;SDS011;4715;51.660;7.082;2023-01-09T11:35:06;4.50;;;2.13;;
5085;SDS011;4715;51.660;7.082;2023-01-09T11:37:38;3.20;;;1.90;;
5085;SDS011;4715;51.660;7.082;2023-01-09T11:40:01;3.93;;;1.90;;
5085;SDS011;4715;51.660;7.082;2023-01-09T11:42:23;3.83;;;1.90;;
5085;SDS011;4715;51.660;7.082;2023-01-09T11:45:00;3.50;;;2.37;;
5085;SDS011;4715;51.660;7.082;2023-01-09T11:47:23;3.33;;;2.07;;
5085;SDS011;4715;51.660;7.082;2023-01-09T11:50:06;4.73;;;2.27;;
5085;SDS011;4715;51.660;7.082;2023-01-09T11:52:28;3.07;;;1.87;;
5085;SDS011;4715;51.660;7.082;2023-01-09T11:54:51;3.90;;;1.77;;
5085;SDS011;4715;51.660;7.082;2023-01-09T11:57:19;6.77;;;2.10;;
5085;SDS011;4715;51.660;7.082;2023-01-09T11:59:42;6.20;;;2.13;;
5085;SDS011;4715;51.660;7.082;2023-01-09T12:02:10;8.47;;;2.63;;
5085;SDS011;4715;51.660;7.082;2023-01-09T12:04:53;2.73;;;2.17;;
5085;SDS011;4715;51.660;7.082;2023-01-09T12:07:40;4.43;;;2.03;;
5085;SDS011;4715;51.660;7.082;2023-01-09T12:10:24;7.80;;;2.50;;
5085;SDS011;4715;51.660;7.082;2023-01-09T12:12:59;2.90;;;2.17;;
5085;SDS011;4715;51.660;7.082;2023-01-09T12:15:29;4.73;;;2.33;;
5085;SDS011;4715;51.660;7.082;2023-01-09T12:18:06;1.83;;;1.60;;
5085;SDS011;4715;51.660;7.082;2023-01-09T12:20:48;2.80;;;1.73;;
5085;SDS011;4715;51.660;7.082;2023-01-09T12:23:20;3.57;;;2.17;;
5085;SDS011;4715;51.660;7.082;2023-01-09T12:25:49;5.50;;;2.40;;
5085;SDS011;4715;51.660;7.082;2023-01-09T12:28:28;7.30;;;2.83;;
5085;SDS011;4715;51.660;7.082;2023-01-09T12:31:24;6.60;;;2.73;;
5085;SDS011;4715;51.660;7.082;2023-01-09T12:33:58;6.60;;;2.40;;
5085;SDS011;4715;51.660;7.082;2023-01-09T12:36:31;7.20;;;2.70;;
5085;SDS011;4715;51.660;7.082;2023-01-09T12:39:05;7.20;;;2.53;;
5085;SDS011;4715;51.660;7.082;2023-01-09T12:42:00;2.33;;;1.90;;
5085;SDS011;4715;51.660;7.082;2023-01-09T12:44:40;7.40;;;2.73;;
5085;SDS011;4715;51.660;7.082;2023-01-09T12:50:04;4.10;;;3.07;;
5085;SDS011;4715;51.660;7.082;2023-01-09T12:52:37;6.57;;;3.10;;
5085;SDS011;4715;51.660;7.082;2023-01-09T12:55:05;4.63;;;2.50;;
5085;SDS011;4715;51.660;7.082;2023-01-09T12:57:36;4.73;;;2.60;;
5085;SDS011;4715;51.660;7.082;2023-01-09T13:00:05;6.20;;;2.80;;
5085;SDS011;4715;51.660;7.082;2023-01-09T13:02:38;6.37;;;2.70;;
5085;SDS011;4715;51.660;7.082;2023-01-09T13:05:05;6.60;;;2.17;;
5085;SDS011;4715;51.660;7.082;2023-01-09T13:07:36;3.13;;;2.70;;
5085;SDS011;4715;51.660;7.082;2023-01-09T13:10:03;6.70;;;2.60;;
5085;SDS011;4715;51.660;7.082;2023-01-09T13:12:36;3.20;;;2.43;;
5085;SDS011;4715;51.660;7.082;2023-01-09T13:15:04;4.07;;;2.90;;
5085;SDS011;4715;51.660;7.082;2023-01-09T13:17:39;4.97;;;2.50;;
5085;SDS011;4715;51.660;7.082;2023-01-09T13:20:08;2.50;;;2.40;;
5085;SDS011;4715;51.660;7.082;2023-01-09T13:22:40;4.93;;;2.17;;
5085;SDS011;4715;51.660;7.082;2023-01-09T13:25:18;5.20;;;2.63;;
5085;SDS011;4715;51.660;7.082;2023-01-09T13:27:54;7.73;;;3.00;;
5085;SDS011;4715;51.660;7.082;2023-01-09T13:30:24;4.30;;;2.87;;
5085;SDS011;4715;51.660;7.082;2023-01-09T13:32:58;3.10;;;2.20;;
5085;SDS011;4715;51.660;7.082;2023-01-09T13:35:32;18.60;;;3.90;;
5085;SDS011;4715;51.660;7.082;2023-01-09T13:37:54;2.70;;;2.47;;
5085;SDS011;4715;51.660;7.082;2023-01-09T13:40:26;3.27;;;2.87;;
5085;SDS011;4715;51.660;7.082;2023-01-09T13:42:53;7.47;;;2.47;;
5085;SDS011;4715;51.660;7.082;2023-01-09T13:45:19;4.97;;;2.60;;
5085;SDS011;4715;51.660;7.082;2023-01-09T13:47:44;2.60;;;2.40;;
5085;SDS011;4715;51.660;7.082;2023-01-09T13:50:20;6.17;;;2.77;;
5085;SDS011;4715;51.660;7.082;2023-01-09T13:52:43;4.23;;;2.73;;
5085;SDS011;4715;51.660;7.082;2023-01-09T13:57:44;3.90;;;3.30;;
5085;SDS011;4715;51.660;7.082;2023-01-09T14:00:51;3.40;;;3.07;;
5085;SDS011;4715;51.660;7.082;2023-01-09T14:03:16;3.60;;;2.60;;
5085;SDS011;4715;51.660;7.082;2023-01-09T14:08:25;6.97;;;3.50;;
5085;SDS011;4715;51.660;7.082;2023-01-09T14:10:49;3.27;;;2.70;;
5085;SDS011;4715;51.660;7.082;2023-01-09T14:13:15;8.20;;;2.77;;
5085;SDS011;4715;51.660;7.082;2023-01-09T14:15:41;6.23;;;2.70;;
5085;SDS011;4715;51.660;7.082;2023-01-09T14:18:13;6.57;;;2.80;;
5085;SDS011;4715;51.660;7.082;2023-01-09T14:20:38;2.60;;;2.40;;
5085;SDS011;4715;51.660;7.082;2023-01-09T14:23:02;6.77;;;2.93;;
5085;SDS011;4715;51.660;7.082;2023-01-09T14:25:26;5.40;;;3.00;;
5085;SDS011;4715;51.660;7.082;2023-01-09T14:28:04;5.07;;;2.97;;
5085;SDS011;4715;51.660;7.082;2023-01-09T14:31:00;3.60;;;2.60;;
5085;SDS011;4715;51.660;7.082;2023-01-09T14:33:28;4.43;;;3.13;;
5085;SDS011;4715;51.660;7.082;2023-01-09T14:35:53;3.37;;;2.77;;
5085;SDS011;4715;51.660;7.082;2023-01-09T14:38:25;3.10;;;2.90;;
5085;SDS011;4715;51.660;7.082;2023-01-09T14:40:51;4.33;;;3.53;;
5085;SDS011;4715;51.660;7.082;2023-01-09T14:43:20;4.70;;;3.60;;
5085;SDS011;4715;51.660;7.082;2023-01-09T14:45:48;7.60;;;2.77;;
5085;SDS011;4715;51.660;7.082;2023-01-09T14:48:11;5.40;;;2.93;;
5085;SDS011;4715;51.660;7.082;2023-01-09T14:50:35;4.13;;;2.70;;
5085;SDS011;4715;51.660;7.082;2023-01-09T14:53:04;6.80;;;3.20;;
5085;SDS011;4715;51.660;7.082;2023-01-09T14:55:33;6.10;;;2.70;;
5085;SDS011;4715;51.660;7.082;2023-01-09T14:58:09;12.30;;;3.00;;
5085;SDS011;4715;51.660;7.082;2023-01-09T15:00:31;4.57;;;3.83;;
5085;SDS011;4715;51.660;7.082;2023-01-09T15:02:55;4.53;;;3.97;;
5085;SDS011;4715;51.660;7.082;2023-01-09T15:05:18;3.87;;;3.57;;
5085;SDS011;4715;51.660;7.082;2023-01-09T15:07:44;6.87;;;3.80;;
5085;SDS011;4715;51.660;7.082;2023-01-09T15:10:14;3.33;;;3.00;;
5085;SDS011;4715;51.660;7.082;2023-01-09T15:12:40;7.27;;;3.20;;
5085;SDS011;4715;51.660;7.082;2023-01-09T15:15:04;9.10;;;4.20;;
5085;SDS011;4715;51.660;7.082;2023-01-09T15:17:31;5.10;;;3.27;;
5085;SDS011;4715;51.660;7.082;2023-01-09T15:19:57;5.60;;;4.13;;
5085;SDS011;4715;51.660;7.082;2023-01-09T15:22:22;6.43;;;4.40;;
5085;SDS011;4715;51.660;7.082;2023-01-09T15:24:49;6.53;;;3.90;;